Time;durP1;ratioP1;P1;durP2;ratioP2;P2;SDS_P1;SDS_P2;PMS_P1;PMS_P2;Temp;Humidity;BMP_temperature;BMP_pressure;BME280_temperature;BME280_humidity;BME280_pressure;Samples;Min_cycle;Max_cycle;Signal;HPM_P1;HPM_P2
2024/02/22 00:01:56;;;;;;;12.53;6.10;;;10.00;99.90;;;;;;4994750;28;20096;-70
2024/02/22 00:04:21;;;;;;;17.90;5.93;;;10.00;99.90;;;;;;5005044;28;20025;-70
2024/02/22 00:06:47;;;;;;;9.93;6.00;;;9.90;99.90;;;;;;5000293;28;20662;-70
2024/02/22 00:09:13;;;;;;;9.53;6.03;;;10.00;99.90;;;;;;4986468;28;20498;-70
2024/02/22 00:11:40;;;;;;;10.87;5.70;;;10.00;99.90;;;;;;4995016;28;20031;-70
2024/02/22 00:14:06;;;;;;;19.38;7.00;;;9.90;99.90;;;;;;5003387;28;20439;-69
2024/02/22 00:16:34;;;;;;;17.25;6.57;;;9.80;99.90;;;;;;5006801;28;20732;-70
2024/02/22 00:19:00;;;;;;;13.32;6.78;;;9.70;99.90;;;;;;5005793;28;20041;-70
2024/02/22 00:21:25;;;;;;;12.30;6.65;;;9.70;99.90;;;;;;5005385;28;20022;-70
2024/02/22 00:23:51;;;;;;;14.37;6.53;;;9.70;99.90;;;;;;5005139;28;20045;-70
2024/02/22 00:26:17;;;;;;;12.87;6.97;;;9.70;99.90;;;;;;5006292;28;20029;-70
2024/02/22 00:28:42;;;;;;;17.37;6.57;;;9.70;99.90;;;;;;5004811;28;20108;-70
2024/02/22 00:31:08;;;;;;;12.50;6.50;;;9.70;99.90;;;;;;5005334;28;20041;-70
2024/02/22 00:33:33;;;;;;;13.83;6.20;;;9.80;99.90;;;;;;5005998;28;20486;-69
2024/02/22 00:36:00;;;;;;;13.23;7.30;;;9.80;99.90;;;;;;5005061;28;20026;-70
2024/02/22 00:38:26;;;;;;;12.48;7.35;;;9.90;99.90;;;;;;5005824;28;20026;-70
2024/02/22 00:40:52;;;;;;;12.70;6.03;;;9.80;99.90;;;;;;5005112;28;20065;-70
2024/02/22 00:43:18;;;;;;;12.07;5.85;;;9.80;99.90;;;;;;5005970;28;20034;-70
2024/02/22 00:45:44;;;;;;;15.18;8.00;;;9.70;99.90;;;;;;5006798;28;20042;-70
2024/02/22 00:48:09;;;;;;;15.57;7.17;;;9.70;99.90;;;;;;5005458;28;20026;-70
2024/02/22 00:50:35;;;;;;;16.33;8.57;;;9.70;99.90;;;;;;5004188;28;20025;-70
2024/02/22 00:53:01;;;;;;;13.07;6.88;;;9.60;99.90;;;;;;5005019;28;20360;-69
2024/02/22 00:55:26;;;;;;;18.13;7.47;;;9.60;99.90;;;;;;5005812;28;20120;-70
2024/02/22 00:57:52;;;;;;;19.27;7.93;;;9.60;99.90;;;;;;4997658;28;20025;-72
2024/02/22 01:00:18;;;;;;;16.20;7.67;;;9.60;99.90;;;;;;5005945;28;20092;-70
2024/02/22 01:02:43;;;;;;;19.40;7.17;;;9.60;99.90;;;;;;5005782;28;20034;-70
2024/02/22 01:05:09;;;;;;;12.87;7.73;;;9.60;99.90;;;;;;5006182;28;20279;-70
2024/02/22 01:07:35;;;;;;;12.43;6.53;;;9.60;99.90;;;;;;5001191;28;20034;-70
2024/02/22 01:10:00;;;;;;;14.40;6.87;;;9.60;99.90;;;;;;4987241;28;20046;-70
2024/02/22 01:12:28;;;;;;;11.70;6.25;;;9.70;99.90;;;;;;4994166;28;20066;-70
2024/02/22 01:14:53;;;;;;;13.55;6.57;;;9.80;99.90;;;;;;4986688;28;20123;-69
2024/02/22 01:17:19;;;;;;;17.97;6.73;;;9.70;99.90;;;;;;4997462;28;20094;-70
2024/02/22 01:19:47;;;;;;;15.37;6.93;;;9.70;99.90;;;;;;5005978;28;20041;-70
2024/02/22 01:22:13;;;;;;;13.65;5.68;;;9.80;99.90;;;;;;4996066;28;20125;-70
2024/02/22 01:24:39;;;;;;;18.98;6.53;;;9.80;99.90;;;;;;4984555;28;20141;-70
2024/02/22 01:27:08;;;;;;;12.75;6.68;;;9.80;99.90;;;;;;4993179;28;20785;-69
2024/02/22 01:29:34;;;;;;;10.35;6.53;;;9.80;99.90;;;;;;4984572;28;20065;-69
2024/02/22 01:32:00;;;;;;;11.40;6.07;;;9.80;99.90;;;;;;4984471;28;20471;-70
2024/02/22 01:34:26;;;;;;;11.90;6.90;;;9.80;99.90;;;;;;4985075;28;20826;-69
2024/02/22 01:36:51;;;;;;;14.70;6.87;;;9.80;99.90;;;;;;4987832;28;20129;-69
2024/02/22 01:39:17;;;;;;;12.73;6.80;;;9.80;99.90;;;;;;5003370;28;20029;-69
2024/02/22 01:41:44;;;;;;;11.00;5.23;;;9.90;99.90;;;;;;5005020;28;20780;-69
2024/02/22 01:44:10;;;;;;;12.63;6.45;;;9.80;99.90;;;;;;5004817;28;20042;-69
2024/02/22 01:46:37;;;;;;;12.65;5.75;;;9.80;99.90;;;;;;5005778;28;20034;-70
2024/02/22 01:49:03;;;;;;;;;;;9.80;99.90;;;;;;5005177;28;20066;-70
2024/02/22 01:51:29;;;;;;;11.07;5.18;;;9.80;99.90;;;;;;5005484;28;19956;-70
2024/02/22 01:53:56;;;;;;;12.60;5.80;;;9.80;99.90;;;;;;5004324;28;20032;-70
2024/02/22 01:56:22;;;;;;;10.13;5.18;;;9.80;99.90;;;;;;5005506;28;20501;-70
2024/02/22 01:58:49;;;;;;;12.95;5.20;;;9.80;99.90;;;;;;5003395;28;20029;-70
2024/02/22 02:01:18;;;;;;;7.70;4.35;;;9.90;99.90;;;;;;5005029;28;20038;-70
2024/02/22 02:03:44;;;;;;;9.68;4.70;;;9.90;99.90;;;;;;5004340;28;20030;-70
2024/02/22 02:06:10;;;;;;;8.32;3.70;;;9.90;99.90;;;;;;5005210;28;20049;-70
2024/02/22 02:08:36;;;;;;;7.27;3.60;;;10.00;99.90;;;;;;5004549;28;20127;-70
2024/02/22 02:11:02;;;;;;;6.65;3.58;;;10.00;99.90;;;;;;5002911;28;20029;-70
2024/02/22 02:13:28;;;;;;;7.38;3.58;;;10.00;99.90;;;;;;4986744;28;20540;-70
2024/02/22 02:15:53;;;;;;;7.07;3.40;;;10.00;99.90;;;;;;4985614;28;20035;-70
2024/02/22 02:18:19;;;;;;;4.10;3.10;;;10.00;99.90;;;;;;4996395;28;20401;-70
2024/02/22 02:20:57;;;;;;;5.47;2.70;;;10.00;99.90;;;;;;5005627;28;20505;-70
2024/02/22 02:23:55;;;;;;;6.15;3.13;;;10.10;99.90;;;;;;5007360;28;20713;-70
2024/02/22 02:26:20;;;;;;;6.47;2.47;;;10.20;99.90;;;;;;5005902;28;20064;-70
2024/02/22 02:28:46;;;;;;;3.57;2.33;;;10.10;99.90;;;;;;5003987;28;20418;-70
2024/02/22 02:31:11;;;;;;;4.33;2.30;;;10.10;99.90;;;;;;5008916;28;20022;-70
2024/02/22 02:33:37;;;;;;;4.00;2.70;;;10.10;99.90;;;;;;5007931;28;20444;-70
2024/02/22 02:36:03;;;;;;;4.15;2.38;;;10.10;99.90;;;;;;5009055;28;20361;-70
2024/02/22 02:38:28;;;;;;;6.77;2.30;;;10.10;99.90;;;;;;5008467;28;20087;-70
2024/02/22 02:40:54;;;;;;;3.87;2.73;;;10.10;99.90;;;;;;5008543;28;20281;-70
2024/02/22 02:43:20;;;;;;;3.20;2.13;;;10.10;99.90;;;;;;5008923;28;20033;-72
2024/02/22 02:45:45;;;;;;;4.27;2.50;;;10.10;99.90;;;;;;5009362;28;20038;-70
2024/02/22 02:48:11;;;;;;;8.03;2.70;;;10.10;99.90;;;;;;5008029;28;20038;-70
2024/02/22 02:50:36;;;;;;;4.20;2.53;;;10.00;99.90;;;;;;5008340;28;20034;-70
2024/02/22 02:53:02;;;;;;;10.07;2.33;;;10.00;99.90;;;;;;5004395;28;20113;-70
2024/02/22 02:55:28;;;;;;;5.47;2.90;;;10.00;99.90;;;;;;5008295;28;20080;-70
2024/02/22 02:57:54;;;;;;;5.47;2.93;;;10.00;99.90;;;;;;5006358;28;20038;-70
2024/02/22 03:00:20;;;;;;;11.50;3.33;;;10.00;99.90;;;;;;5008053;28;20429;-70
2024/02/22 03:02:45;;;;;;;2.87;2.23;;;9.90;99.90;;;;;;5007493;28;20040;-70
2024/02/22 03:05:11;;;;;;;8.10;2.90;;;9.90;99.90;;;;;;5008654;28;20304;-70
2024/02/22 03:07:37;;;;;;;8.80;3.20;;;9.90;99.90;;;;;;5007246;28;20037;-70
2024/02/22 03:10:05;;;;;;;6.93;2.97;;;9.80;99.90;;;;;;5008008;28;20053;-70
2024/02/22 03:12:31;;;;;;;4.55;2.72;;;9.90;99.90;;;;;;4999469;28;20028;-70
2024/02/22 03:14:57;;;;;;;10.82;3.83;;;9.80;99.90;;;;;;5008105;28;20726;-70
2024/02/22 03:17:24;;;;;;;5.43;3.17;;;9.80;99.90;;;;;;5007108;28;20037;-70
2024/02/22 03:19:49;;;;;;;6.35;3.05;;;9.80;99.90;;;;;;5007770;28;20026;-70
2024/02/22 03:22:15;;;;;;;7.10;3.43;;;9.70;99.90;;;;;;5007305;28;20101;-70
2024/02/22 03:24:41;;;;;;;5.40;3.15;;;9.70;99.90;;;;;;5007853;28;20041;-70
2024/02/22 03:27:10;;;;;;;6.43;3.20;;;9.70;99.90;;;;;;5005250;28;20033;-70
2024/02/22 03:29:41;;;;;;;7.38;3.47;;;9.70;99.90;;;;;;4988774;28;20081;-70
2024/02/22 03:32:06;;;;;;;7.63;3.00;;;9.70;99.90;;;;;;4987340;28;20045;-69
2024/02/22 03:34:33;;;;;;;6.13;3.07;;;9.60;99.90;;;;;;4988196;28;20027;-70
2024/02/22 03:36:59;;;;;;;9.95;4.07;;;9.60;99.90;;;;;;4988409;28;20089;-70
2024/02/22 03:39:24;;;;;;;8.67;4.20;;;9.50;99.90;;;;;;4998546;28;20042;-70
2024/02/22 03:41:50;;;;;;;5.90;4.00;;;9.50;99.90;;;;;;5007243;28;20128;-70
2024/02/22 03:44:17;;;;;;;8.73;4.00;;;9.50;99.90;;;;;;4991403;28;20509;-70
2024/02/22 03:46:47;;;;;;;5.32;3.60;;;9.40;99.90;;;;;;4987890;28;20070;-69
2024/02/22 03:49:13;;;;;;;7.45;3.75;;;9.50;99.90;;;;;;5004711;28;20041;-70
2024/02/22 03:51:38;;;;;;;9.83;4.73;;;9.40;99.90;;;;;;5006712;28;20026;-70
2024/02/22 03:54:04;;;;;;;5.83;3.70;;;9.40;99.90;;;;;;4991144;28;20117;-70
2024/02/22 03:56:33;;;;;;;6.83;4.13;;;9.40;99.90;;;;;;4987696;28;20037;-69
2024/02/22 03:58:59;;;;;;;10.23;3.97;;;9.40;99.90;;;;;;4996018;28;20033;-69
2024/02/22 04:01:25;;;;;;;9.48;4.45;;;9.40;99.90;;;;;;4986989;28;20033;-69
2024/02/22 04:03:50;;;;;;;12.87;4.70;;;9.30;99.90;;;;;;4987503;28;20038;-70
2024/02/22 04:06:16;;;;;;;14.20;4.97;;;9.30;99.90;;;;;;4987585;28;20036;-70
2024/02/22 04:08:41;;;;;;;7.83;4.73;;;9.30;99.90;;;;;;4992745;28;20042;-69
2024/02/22 04:11:07;;;;;;;9.93;4.73;;;9.20;99.90;;;;;;4999588;28;20548;-69
2024/02/22 04:13:36;;;;;;;10.87;4.73;;;9.10;99.90;;;;;;4993588;28;20048;-69
2024/02/22 04:16:02;;;;;;;9.90;4.80;;;9.20;99.90;;;;;;5004206;28;20030;-68
2024/02/22 04:18:28;;;;;;;13.77;4.95;;;9.20;99.90;;;;;;5000490;28;20049;-69
2024/02/22 04:20:54;;;;;;;8.23;4.63;;;9.20;99.90;;;;;;4994816;28;20057;-69
2024/02/22 04:23:19;;;;;;;8.63;5.15;;;9.20;99.90;;;;;;4999164;28;20072;-69
2024/02/22 04:25:45;;;;;;;7.60;4.43;;;9.20;99.90;;;;;;4994375;28;20062;-70
2024/02/22 04:28:15;;;;;;;10.37;4.57;;;9.20;99.90;;;;;;4995780;28;20038;-69
2024/02/22 04:30:40;;;;;;;8.52;4.80;;;9.30;99.90;;;;;;4996381;28;20033;-69
2024/02/22 04:33:06;;;;;;;9.77;4.70;;;9.20;99.90;;;;;;4997745;28;20425;-69
2024/02/22 04:35:32;;;;;;;10.57;5.23;;;9.20;99.90;;;;;;4993999;28;20057;-69
2024/02/22 04:37:57;;;;;;;10.83;5.13;;;9.20;99.90;;;;;;5003490;28;20026;-69
2024/02/22 04:40:23;;;;;;;10.30;4.57;;;9.20;99.90;;;;;;4996897;28;20026;-68
2024/02/22 04:42:48;;;;;;;8.10;4.30;;;9.10;99.90;;;;;;4998096;28;20531;-69
2024/02/22 04:45:14;;;;;;;9.73;4.60;;;9.10;99.90;;;;;;4992295;28;20691;-69
2024/02/22 04:47:40;;;;;;;7.93;4.73;;;9.10;99.90;;;;;;4994944;28;20309;-70
2024/02/22 04:50:06;;;;;;;5.23;3.90;;;9.10;99.90;;;;;;4994693;28;20141;-69
2024/02/22 04:52:31;;;;;;;10.65;5.05;;;9.10;99.90;;;;;;4995445;28;20034;-69
2024/02/22 04:54:59;;;;;;;10.13;5.23;;;9.10;99.90;;;;;;4992511;28;20128;-70
2024/02/22 04:57:25;;;;;;;9.73;5.15;;;9.10;99.90;;;;;;5000742;28;20021;-69
2024/02/22 04:59:51;;;;;;;;;;;9.10;99.90;;;;;;5002133;28;20034;-69
2024/02/22 05:02:17;;;;;;;9.00;4.20;;;9.20;99.90;;;;;;4992965;28;20285;-70
2024/02/22 05:04:42;;;;;;;9.70;4.70;;;9.20;99.90;;;;;;5000745;28;20041;-70
2024/02/22 05:07:08;;;;;;;6.47;4.00;;;9.20;99.90;;;;;;5000159;28;20026;-70
2024/02/22 05:09:33;;;;;;;7.00;4.43;;;9.20;99.90;;;;;;4995728;28;20050;-70
2024/02/22 05:11:59;;;;;;;8.17;4.30;;;9.20;99.90;;;;;;4991106;28;20109;-69
2024/02/22 05:14:25;;;;;;;11.57;4.53;;;9.20;99.90;;;;;;4994225;28;20442;-69
2024/02/22 05:16:50;;;;;;;7.13;4.57;;;9.20;99.90;;;;;;4997324;28;20484;-70
2024/02/22 05:19:16;;;;;;;7.47;3.87;;;9.30;99.90;;;;;;4998503;28;20627;-70
2024/02/22 05:21:42;;;;;;;6.35;3.80;;;9.20;99.90;;;;;;4993439;28;20156;-69
2024/02/22 05:24:10;;;;;;;7.50;4.37;;;9.20;99.90;;;;;;5008140;28;20038;-70
2024/02/22 05:26:36;;;;;;;6.45;3.50;;;9.20;99.90;;;;;;4997120;28;20152;-70
2024/02/22 05:29:02;;;;;;;9.05;4.03;;;9.10;99.90;;;;;;5002131;28;20121;-70
2024/02/22 05:31:28;;;;;;;7.88;4.13;;;9.10;99.90;;;;;;4995807;28;20529;-69
2024/02/22 05:33:54;;;;;;;6.25;3.97;;;9.20;99.90;;;;;;4996130;28;20184;-71
2024/02/22 05:36:21;;;;;;;7.35;3.88;;;9.20;99.90;;;;;;5000450;28;20061;-71
2024/02/22 05:38:48;;;;;;;7.25;3.60;;;9.10;99.90;;;;;;5001447;28;20117;-70
2024/02/22 05:41:17;;;;;;;4.80;3.45;;;9.10;99.90;;;;;;4991914;28;20038;-70
2024/02/22 05:43:42;;;;;;;9.45;3.45;;;9.20;99.90;;;;;;4999544;28;20037;-70
2024/02/22 05:46:08;;;;;;;4.60;3.13;;;9.20;99.90;;;;;;5000246;28;20034;-69
2024/02/22 05:48:34;;;;;;;7.05;3.05;;;9.30;99.90;;;;;;4997666;28;20053;-70
2024/02/22 05:51:00;;;;;;;7.87;3.43;;;9.30;99.90;;;;;;4997143;28;20034;-70
2024/02/22 05:53:25;;;;;;;7.22;2.85;;;9.30;99.90;;;;;;4998747;28;20046;-70
2024/02/22 05:55:51;;;;;;;7.20;3.63;;;9.30;99.90;;;;;;4999892;28;20041;-70
2024/02/22 05:58:17;;;;;;;5.27;3.00;;;9.30;99.90;;;;;;4996020;28;20084;-71
2024/02/22 06:00:43;;;;;;;6.80;2.70;;;9.40;99.90;;;;;;5008538;28;20026;-70
2024/02/22 06:03:09;;;;;;;6.85;2.85;;;9.30;99.90;;;;;;4994588;28;20037;-70
2024/02/22 06:05:36;;;;;;;9.90;3.37;;;9.30;99.90;;;;;;5002725;28;20037;-70
2024/02/22 06:08:03;;;;;;;4.20;2.80;;;9.40;99.90;;;;;;4994242;28;20037;-70
2024/02/22 06:10:28;;;;;;;;;;;9.30;99.90;;;;;;5002993;28;20406;-69
2024/02/22 06:12:54;;;;;;;5.55;2.70;;;9.30;99.90;;;;;;4996024;28;19917;-70
2024/02/22 06:15:19;;;;;;;4.73;2.83;;;9.40;99.90;;;;;;4997566;28;20116;-70
2024/02/22 06:17:45;;;;;;;6.77;2.77;;;9.40;99.90;;;;;;4996027;28;20594;-70
2024/02/22 06:20:11;;;;;;;5.67;2.93;;;9.40;99.90;;;;;;5010178;28;20478;-69
2024/02/22 06:22:37;;;;;;;5.33;2.60;;;9.30;99.90;;;;;;5000711;28;20034;-69
2024/02/22 06:25:02;;;;;;;6.07;3.15;;;9.30;99.90;;;;;;4998091;28;20032;-70
2024/02/22 06:27:28;;;;;;;7.03;2.63;;;9.30;99.90;;;;;;4999535;28;20042;-70
2024/02/22 06:29:54;;;;;;;5.00;2.33;;;9.30;99.90;;;;;;4998056;28;20332;-70
2024/02/22 06:32:22;;;;;;;4.35;2.58;;;9.30;99.90;;;;;;5001275;28;20028;-71
2024/02/22 06:34:47;;;;;;;4.20;2.42;;;9.30;99.90;;;;;;4995187;28;20045;-70
2024/02/22 06:37:13;;;;;;;7.63;2.73;;;9.30;99.90;;;;;;5006999;28;20037;-71
2024/02/22 06:39:39;;;;;;;6.33;2.90;;;9.30;99.90;;;;;;5002644;28;20292;-71
2024/02/22 06:42:05;;;;;;;6.82;2.90;;;9.30;99.90;;;;;;4998662;28;20125;-70
2024/02/22 06:44:31;;;;;;;4.03;2.40;;;9.30;99.90;;;;;;5003961;28;20043;-70
2024/02/22 06:46:56;;;;;;;5.40;2.13;;;9.30;99.90;;;;;;5022881;28;20034;-71
2024/02/22 06:49:22;;;;;;;4.37;2.17;;;9.30;99.90;;;;;;4994263;28;20038;-70
2024/02/22 06:51:47;;;;;;;7.17;2.33;;;9.20;99.90;;;;;;5000002;28;20501;-70
2024/02/22 06:54:13;;;;;;;12.97;2.37;;;9.20;99.90;;;;;;4998241;28;20032;-70
2024/02/22 06:56:39;;;;;;;7.07;2.37;;;9.10;99.90;;;;;;4997553;28;20453;-70
2024/02/22 06:59:05;;;;;;;6.20;2.50;;;9.20;99.90;;;;;;4998955;28;20058;-70
2024/02/22 07:01:33;;;;;;;3.40;1.92;;;9.20;99.90;;;;;;4999197;28;21034;-69
2024/02/22 07:03:58;;;;;;;5.13;2.67;;;9.20;99.90;;;;;;5000285;28;20059;-69
2024/02/22 07:06:24;;;;;;;4.80;2.33;;;9.10;99.90;;;;;;4997967;28;20030;-69
2024/02/22 07:08:50;;;;;;;3.13;2.40;;;9.00;99.90;;;;;;5001604;28;20304;-69
2024/02/22 07:11:15;;;;;;;3.88;2.50;;;8.80;99.90;;;;;;4999345;28;20480;-69
2024/02/22 07:13:41;;;;;;;6.17;2.80;;;8.80;99.90;;;;;;4995354;28;20065;-68
2024/02/22 07:16:07;;;;;;;5.43;3.20;;;8.80;99.90;;;;;;4999574;28;20105;-68
2024/02/22 07:18:33;;;;;;;5.72;2.97;;;8.80;99.90;;;;;;4996360;28;20514;-69
2024/02/22 07:20:59;;;;;;;4.88;2.80;;;8.80;99.90;;;;;;5000293;28;20037;-69
2024/02/22 07:23:24;;;;;;;5.43;3.73;;;8.90;99.90;;;;;;5014410;28;20067;-69
2024/02/22 07:25:50;;;;;;;7.03;2.90;;;8.90;99.90;;;;;;5002085;28;20034;-71
2024/02/22 07:28:15;;;;;;;9.50;3.27;;;9.00;99.90;;;;;;4997167;28;20605;-70
2024/02/22 07:30:41;;;;;;;6.38;2.60;;;8.90;99.90;;;;;;4998069;28;20034;-69
2024/02/22 07:33:09;;;;;;;4.68;2.65;;;9.00;99.90;;;;;;4998260;28;20042;-70
2024/02/22 07:35:35;;;;;;;5.65;2.42;;;9.00;99.90;;;;;;4997331;28;20034;-69
2024/02/22 07:38:00;;;;;;;4.65;2.60;;;9.00;99.90;;;;;;5000902;28;20513;-70
2024/02/22 07:40:26;;;;;;;7.30;3.60;;;9.00;99.90;;;;;;4996817;28;20118;-71
2024/02/22 07:42:52;;;;;;;3.40;1.93;;;9.00;99.90;;;;;;4997947;28;20303;-71
2024/02/22 07:45:18;;;;;;;4.30;2.20;;;9.00;99.90;;;;;;4996998;28;20042;-69
2024/02/22 07:47:44;;;;;;;3.88;2.38;;;9.10;99.90;;;;;;4996598;28;20061;-69
2024/02/22 07:50:10;;;;;;;3.87;2.57;;;9.10;99.90;;;;;;4996569;28;20065;-70
2024/02/22 07:52:39;;;;;;;5.32;2.13;;;9.10;99.90;;;;;;4998087;28;20338;-70
2024/02/22 07:55:05;;;;;;;2.83;1.98;;;9.20;99.90;;;;;;4998882;28;20038;-72
2024/02/22 07:57:31;;;;;;;3.90;1.80;;;9.20;99.90;;;;;;4997370;28;20049;-69
2024/02/22 07:59:57;;;;;;;5.40;1.93;;;9.20;99.90;;;;;;5002259;28;20036;-70
2024/02/22 08:02:23;;;;;;;2.28;1.48;;;9.20;99.90;;;;;;5000626;28;20030;-69
2024/02/22 08:04:50;;;;;;;7.20;2.25;;;9.30;99.90;;;;;;4996080;28;20104;-69
2024/02/22 08:07:17;;;;;;;4.13;2.00;;;9.30;99.90;;;;;;4995654;28;20549;-69
2024/02/22 08:09:42;;;;;;;3.40;2.15;;;9.40;99.90;;;;;;4999127;28;20124;-69
2024/02/22 08:12:09;;;;;;;4.10;2.37;;;9.40;99.90;;;;;;4988898;28;20467;-70
2024/02/22 08:14:35;;;;;;;6.50;2.55;;;9.40;99.90;;;;;;4996712;28;20836;-69
2024/02/22 08:17:01;;;;;;;4.72;2.30;;;9.40;99.90;;;;;;4994227;28;20117;-69
2024/02/22 08:19:27;;;;;;;5.20;2.97;;;9.50;99.90;;;;;;4998338;28;20379;-69
2024/02/22 08:21:53;;;;;;;;;;;9.40;99.90;;;;;;4995617;28;20812;-69
2024/02/22 08:24:21;;;;;;;7.15;2.22;;;9.40;99.90;;;;;;4994589;28;19920;-71
2024/02/22 08:26:46;;;;;;;8.48;2.50;;;9.40;99.90;;;;;;4994829;28;20034;-69
2024/02/22 08:29:12;;;;;;;2.90;2.20;;;9.40;99.90;;;;;;4994023;28;20414;-69
2024/02/22 08:31:38;;;;;;;6.45;2.50;;;9.40;99.90;;;;;;4992069;28;20522;-69
2024/02/22 08:34:03;;;;;;;3.77;2.37;;;9.50;99.90;;;;;;4996218;28;20037;-70
2024/02/22 08:36:29;;;;;;;5.07;2.60;;;9.50;99.90;;;;;;4996859;28;20096;-70
2024/02/22 08:38:57;;;;;;;6.70;3.13;;;9.60;99.90;;;;;;5001616;28;20104;-69
2024/02/22 08:41:23;;;;;;;3.58;2.38;;;9.60;99.90;;;;;;4995834;28;20400;-70
2024/02/22 08:43:48;;;;;;;4.43;2.17;;;9.70;99.90;;;;;;5001274;28;20034;-70
2024/02/22 08:46:14;;;;;;;3.20;2.50;;;9.70;99.90;;;;;;4997446;28;20029;-69
2024/02/22 08:48:40;;;;;;;3.20;2.53;;;9.70;99.90;;;;;;4995494;28;20073;-70
2024/02/22 08:51:08;;;;;;;8.85;2.53;;;9.60;99.90;;;;;;4995644;28;20024;-71
2024/02/22 08:53:34;;;;;;;7.20;2.85;;;9.60;99.90;;;;;;4996773;28;20048;-70
2024/02/22 08:55:59;;;;;;;3.67;2.13;;;9.60;99.90;;;;;;4996481;28;20038;-69
2024/02/22 08:58:25;;;;;;;6.60;2.77;;;9.60;99.90;;;;;;4996332;28;20034;-71
2024/02/22 09:00:51;;;;;;;6.30;2.97;;;9.60;99.90;;;;;;4995308;28;20026;-71
2024/02/22 09:03:16;;;;;;;3.67;2.57;;;9.60;99.90;;;;;;4996713;28;20101;-72
2024/02/22 09:05:44;;;;;;;4.00;2.50;;;9.50;99.90;;;;;;5000207;28;20486;-75
2024/02/22 09:08:09;;;;;;;3.95;2.47;;;9.60;99.90;;;;;;5003821;28;20073;-70
2024/02/22 09:10:35;;;;;;;5.90;2.97;;;9.60;99.90;;;;;;4998820;28;20060;-70
2024/02/22 09:13:00;;;;;;;4.60;2.90;;;9.60;99.90;;;;;;4994879;28;20092;-69
2024/02/22 09:15:26;;;;;;;5.23;3.07;;;9.60;99.90;;;;;;4995677;28;20034;-69
2024/02/22 09:17:51;;;;;;;7.20;3.17;;;9.70;99.90;;;;;;4995446;28;20035;-69
2024/02/22 09:20:18;;;;;;;4.40;2.90;;;9.70;99.90;;;;;;4996599;28;20117;-69
2024/02/22 09:22:43;;;;;;;6.03;3.88;;;9.70;99.90;;;;;;4997357;28;20135;-69
2024/02/22 09:25:10;;;;;;;7.43;3.10;;;9.70;99.90;;;;;;4995413;28;20128;-69
2024/02/22 09:27:36;;;;;;;4.43;3.25;;;9.70;99.90;;;;;;4994954;28;20115;-69
2024/02/22 09:30:03;;;;;;;6.72;3.55;;;9.70;99.90;;;;;;4993834;28;20030;-69
2024/02/22 09:32:29;;;;;;;4.90;3.33;;;9.80;99.90;;;;;;5001195;28;20418;-69
2024/02/22 09:34:55;;;;;;;6.53;3.90;;;9.80;99.90;;;;;;5001864;28;20081;-68
2024/02/22 09:37:22;;;;;;;4.53;3.42;;;9.70;99.90;;;;;;4999496;28;20041;-68
2024/02/22 09:39:50;;;;;;;7.00;3.58;;;9.70;99.90;;;;;;5000876;28;20117;-70
2024/02/22 09:42:16;;;;;;;7.57;4.20;;;9.70;99.90;;;;;;4998005;28;20128;-68
2024/02/22 09:44:43;;;;;;;5.53;3.75;;;9.80;99.90;;;;;;4998855;28;20034;-69
2024/02/22 09:47:10;;;;;;;7.28;3.97;;;9.80;99.90;;;;;;5000110;28;20709;-68
2024/02/22 09:49:36;;;;;;;9.85;4.03;;;9.90;99.90;;;;;;4998324;28;20117;-68
2024/02/22 09:52:02;;;;;;;5.80;3.28;;;9.80;99.90;;;;;;5002185;28;20121;-69
2024/02/22 09:54:28;;;;;;;8.05;4.22;;;9.80;99.90;;;;;;4997940;28;20034;-69
2024/02/22 09:56:55;;;;;;;8.50;4.07;;;9.90;99.90;;;;;;5001951;28;20096;-70
2024/02/22 09:59:21;;;;;;;4.63;3.13;;;9.90;99.90;;;;;;5003993;28;20030;-70
2024/02/22 10:01:47;;;;;;;8.65;3.80;;;9.90;99.90;;;;;;5003678;28;20735;-70
2024/02/22 10:04:24;;;;;;;7.63;3.43;;;9.90;99.90;;;;;;5004318;28;20026;-67
2024/02/22 10:06:50;;;;;;;10.70;3.60;;;9.90;99.90;;;;;;5002869;28;20490;-68
2024/02/22 10:09:16;;;;;;;7.43;3.70;;;9.90;99.90;;;;;;5014873;28;20064;-68
2024/02/22 10:11:46;;;;;;;5.82;3.70;;;9.90;99.90;;;;;;4998335;28;20490;-67
2024/02/22 10:14:15;;;;;;;9.75;3.17;;;10.00;99.90;;;;;;5004690;28;20325;-69
2024/02/22 10:16:41;;;;;;;8.30;3.35;;;10.00;99.90;;;;;;5000752;28;20541;-71
2024/02/22 10:19:11;;;;;;;6.35;3.30;;;10.10;99.90;;;;;;5003590;28;20032;-71
2024/02/22 10:21:37;;;;;;;7.93;3.05;;;10.00;99.90;;;;;;5001537;28;20109;-70
2024/02/22 10:24:03;;;;;;;5.28;3.33;;;10.10;99.90;;;;;;5002699;28;20088;-70
2024/02/22 10:26:28;;;;;;;5.95;3.20;;;10.10;99.90;;;;;;4998830;28;20034;-70
2024/02/22 10:29:08;;;;;;;5.53;3.23;;;10.10;99.90;;;;;;5001914;28;20124;-70
2024/02/22 10:31:39;;;;;;;5.55;3.40;;;10.10;99.90;;;;;;5003326;28;20284;-70
2024/02/22 10:34:05;;;;;;;6.78;3.47;;;10.10;99.90;;;;;;5001555;28;20778;-70
2024/02/22 10:36:32;;;;;;;6.57;3.70;;;10.00;99.90;;;;;;4996467;28;20034;-70
2024/02/22 10:38:58;;;;;;;6.28;3.20;;;10.00;99.90;;;;;;4999617;28;20613;-70
2024/02/22 10:41:25;;;;;;;4.47;2.53;;;10.00;99.90;;;;;;4996374;28;20030;-70
2024/02/22 10:43:52;;;;;;;4.65;2.95;;;10.10;99.90;;;;;;4997205;28;20041;-72
2024/02/22 10:46:19;;;;;;;5.82;3.78;;;10.00;99.90;;;;;;4996652;28;20484;-70
2024/02/22 10:48:49;;;;;;;4.95;3.28;;;10.00;99.90;;;;;;5002063;28;20117;-71
2024/02/22 10:51:18;;;;;;;7.95;3.65;;;10.00;99.90;;;;;;5000657;28;20038;-70
2024/02/22 10:53:45;;;;;;;5.57;3.30;;;10.00;99.90;;;;;;4999810;28;20046;-70
2024/02/22 10:56:14;;;;;;;5.65;3.85;;;10.00;99.90;;;;;;4996644;28;20029;-70
2024/02/22 10:58:42;;;;;;;5.45;3.17;;;10.00;99.90;;;;;;4996896;28;20117;-70
2024/02/22 11:01:10;;;;;;;6.45;3.30;;;10.00;99.90;;;;;;4999844;28;20375;-70
2024/02/22 11:03:38;;;;;;;7.78;3.55;;;10.00;99.90;;;;;;5001524;28;20069;-71
2024/02/22 11:06:03;;;;;;;6.93;2.97;;;10.00;99.90;;;;;;4997339;28;20117;-71
2024/02/22 11:08:29;;;;;;;9.13;3.87;;;10.00;99.90;;;;;;4989798;28;20121;-70
2024/02/22 11:11:06;;;;;;;5.35;3.30;;;10.00;99.90;;;;;;4998119;28;20277;-70
2024/02/22 11:13:36;;;;;;;5.60;2.90;;;10.00;99.90;;;;;;4996982;28;20030;-71
2024/02/22 11:16:15;;;;;;;7.43;3.70;;;10.10;99.90;;;;;;4996864;28;20091;-70
2024/02/22 11:18:41;;;;;;;8.32;3.13;;;10.10;99.90;;;;;;4996561;28;20045;-69
2024/02/22 11:21:13;;;;;;;9.23;3.07;;;10.10;99.90;;;;;;4996403;28;20223;-71
2024/02/22 11:23:39;;;;;;;4.93;3.42;;;10.10;99.90;;;;;;4996250;28;20029;-70
2024/02/22 11:26:05;;;;;;;;;;;10.10;99.90;;;;;;4996665;28;20034;-70
2024/02/22 11:28:30;;;;;;;7.05;3.83;;;10.10;99.90;;;;;;4996399;28;20357;-70
2024/02/22 11:31:16;;;;;;;4.27;3.17;;;10.20;99.90;;;;;;4997901;28;20030;-70
2024/02/22 11:33:42;;;;;;;8.85;3.40;;;10.20;99.90;;;;;;4999066;28;20026;-69
2024/02/22 11:36:09;;;;;;;4.23;3.10;;;10.30;99.90;;;;;;4988530;28;20659;-69
2024/02/22 11:38:34;;;;;;;6.30;3.13;;;10.20;99.90;;;;;;4994097;28;20166;-69
2024/02/22 11:41:04;;;;;;;4.90;3.40;;;10.20;99.90;;;;;;4996097;28;20104;-70
2024/02/22 11:43:30;;;;;;;8.48;3.17;;;10.20;99.90;;;;;;4989690;28;20121;-70
2024/02/22 11:46:00;;;;;;;5.60;3.30;;;10.20;99.90;;;;;;4999791;28;20132;-70
2024/02/22 11:48:26;;;;;;;8.27;3.35;;;10.20;99.90;;;;;;5001289;28;20046;-70
2024/02/22 11:50:52;;;;;;;8.63;3.47;;;10.20;99.90;;;;;;4998419;28;20096;-69
2024/02/22 11:53:18;;;;;;;6.20;3.38;;;10.20;99.90;;;;;;4994725;28;20463;-69
2024/02/22 11:55:49;;;;;;;9.77;3.33;;;10.20;99.90;;;;;;4996476;28;20057;-69
2024/02/22 11:58:15;;;;;;;8.20;3.03;;;10.20;99.90;;;;;;4995644;28;20034;-69
2024/02/22 12:00:42;;;;;;;7.70;3.38;;;10.20;99.90;;;;;;4993944;28;20052;-70
2024/02/22 12:03:08;;;;;;;7.45;3.58;;;10.20;99.90;;;;;;4993764;28;20046;-69
2024/02/22 12:05:34;;;;;;;6.88;3.08;;;10.30;99.90;;;;;;4995284;28;20121;-69
2024/02/22 12:08:00;;;;;;;5.60;3.05;;;10.30;99.90;;;;;;4993002;28;20133;-70
2024/02/22 12:10:26;;;;;;;5.63;3.10;;;10.30;99.90;;;;;;4992558;28;20041;-69
2024/02/22 12:12:51;;;;;;;8.38;3.15;;;10.30;99.90;;;;;;4995538;28;20031;-70
2024/02/22 12:15:21;;;;;;;9.83;3.57;;;10.40;99.90;;;;;;4992008;28;20055;-70
2024/02/22 12:17:49;;;;;;;5.45;3.10;;;10.30;99.90;;;;;;4994804;28;20092;-70
2024/02/22 12:20:18;;;;;;;6.57;3.15;;;10.30;99.90;;;;;;4995375;28;20042;-70
2024/02/22 12:22:45;;;;;;;11.25;3.75;;;10.30;99.90;;;;;;4995187;28;20034;-70
2024/02/22 12:25:10;;;;;;;6.85;3.78;;;10.30;99.90;;;;;;4995149;28;20042;-70
2024/02/22 12:27:36;;;;;;;8.47;2.73;;;10.30;99.90;;;;;;4995533;28;20037;-70
2024/02/22 12:30:02;;;;;;;10.37;3.50;;;10.30;99.90;;;;;;4996931;28;20510;-70
2024/02/22 12:32:28;;;;;;;5.55;3.42;;;10.40;99.90;;;;;;4995758;28;20101;-69
2024/02/22 12:34:56;;;;;;;7.65;2.78;;;10.40;99.90;;;;;;4998587;28;20041;-70
2024/02/22 12:37:21;;;;;;;6.78;3.38;;;10.50;99.90;;;;;;4994782;28;20434;-69
2024/02/22 12:39:50;;;;;;;7.27;3.23;;;10.50;99.90;;;;;;4987548;28;20038;-70
2024/02/22 12:42:16;;;;;;;9.40;3.22;;;10.40;99.90;;;;;;4995839;28;20725;-70
2024/02/22 12:44:41;;;;;;;9.40;3.50;;;10.50;99.90;;;;;;4996138;28;20046;-69
2024/02/22 12:47:11;;;;;;;7.23;3.03;;;10.40;99.90;;;;;;4995442;28;20034;-70
2024/02/22 12:49:38;;;;;;;8.55;4.00;;;10.60;99.90;;;;;;4995464;28;20305;-69